sensor_id;sensor_type;location;lat;lon;timestamp;P1;durP1;ratioP1;P2;durP2;ratioP2
51957;SDS011;41120;51.820;20.804;2022-10-31T00:00:31;354.77;;;62.30;;
51957;SDS011;41120;51.820;20.804;2022-10-31T00:05:59;408.43;;;60.93;;
51957;SDS011;41120;51.820;20.804;2022-10-31T00:08:30;435.80;;;61.40;;
51957;SDS011;41120;51.820;20.804;2022-10-31T00:16:40;377.13;;;58.50;;
51957;SDS011;41120;51.820;20.804;2022-10-31T00:19:08;382.97;;;60.07;;
51957;SDS011;41120;51.820;20.804;2022-10-31T00:21:36;451.70;;;62.43;;
51957;SDS011;41120;51.820;20.804;2022-10-31T00:24:03;414.70;;;58.63;;
51957;SDS011;41120;51.820;20.804;2022-10-31T00:26:31;411.93;;;61.23;;
51957;SDS011;41120;51.820;20.804;2022-10-31T00:32:09;376.60;;;57.77;;
51957;SDS011;41120;51.820;20.804;2022-10-31T00:34:40;374.70;;;54.77;;
51957;SDS011;41120;51.820;20.804;2022-10-31T00:39:51;366.07;;;55.00;;
51957;SDS011;41120;51.820;20.804;2022-10-31T00:42:21;302.80;;;51.90;;
51957;SDS011;41120;51.820;20.804;2022-10-31T00:44:56;371.53;;;54.80;;
51957;SDS011;41120;51.820;20.804;2022-10-31T00:47:28;346.73;;;53.43;;
51957;SDS011;41120;51.820;20.804;2022-10-31T00:49:55;362.17;;;52.95;;
51957;SDS011;41120;51.820;20.804;2022-10-31T00:54:53;369.23;;;52.73;;
51957;SDS011;41120;51.820;20.804;2022-10-31T00:57:28;376.80;;;52.93;;
51957;SDS011;41120;51.820;20.804;2022-10-31T00:59:55;314.67;;;52.30;;
51957;SDS011;41120;51.820;20.804;2022-10-31T01:02:22;322.77;;;51.07;;
51957;SDS011;41120;51.820;20.804;2022-10-31T01:04:53;356.40;;;51.70;;
51957;SDS011;41120;51.820;20.804;2022-10-31T01:07:26;302.67;;;50.63;;
51957;SDS011;41120;51.820;20.804;2022-10-31T01:09:59;349.80;;;51.33;;
51957;SDS011;41120;51.820;20.804;2022-10-31T01:15:18;317.53;;;50.40;;
51957;SDS011;41120;51.820;20.804;2022-10-31T01:18:00;351.77;;;49.57;;
51957;SDS011;41120;51.820;20.804;2022-10-31T01:20:32;354.83;;;49.83;;
51957;SDS011;41120;51.820;20.804;2022-10-31T01:23:03;407.83;;;50.92;;
51957;SDS011;41120;51.820;20.804;2022-10-31T01:25:31;399.73;;;50.00;;
51957;SDS011;41120;51.820;20.804;2022-10-31T01:28:00;416.17;;;50.17;;
51957;SDS011;41120;51.820;20.804;2022-10-31T01:33:22;408.83;;;50.72;;
51957;SDS011;41120;51.820;20.804;2022-10-31T01:36:01;369.00;;;48.73;;
51957;SDS011;41120;51.820;20.804;2022-10-31T01:38:28;422.33;;;50.53;;
51957;SDS011;41120;51.820;20.804;2022-10-31T01:40:56;441.73;;;51.10;;
51957;SDS011;41120;51.820;20.804;2022-10-31T01:46:43;418.20;;;49.70;;
51957;SDS011;41120;51.820;20.804;2022-10-31T01:53:03;417.70;;;49.20;;
51957;SDS011;41120;51.820;20.804;2022-10-31T01:55:37;468.70;;;50.30;;
51957;SDS011;41120;51.820;20.804;2022-10-31T01:58:22;389.90;;;48.87;;
51957;SDS011;41120;51.820;20.804;2022-10-31T02:00:55;360.73;;;46.60;;
51957;SDS011;41120;51.820;20.804;2022-10-31T02:03:26;402.40;;;46.87;;
51957;SDS011;41120;51.820;20.804;2022-10-31T02:08:41;422.92;;;48.25;;
51957;SDS011;41120;51.820;20.804;2022-10-31T02:17:12;383.73;;;45.73;;
51957;SDS011;41120;51.820;20.804;2022-10-31T02:19:56;372.70;;;44.37;;
51957;SDS011;41120;51.820;20.804;2022-10-31T02:41:30;313.90;;;45.73;;
51957;SDS011;41120;51.820;20.804;2022-10-31T02:43:53;316.47;;;44.83;;
51957;SDS011;41120;51.820;20.804;2022-10-31T02:46:34;359.70;;;47.10;;
51957;SDS011;41120;51.820;20.804;2022-10-31T02:49:15;310.67;;;47.37;;
51957;SDS011;41120;51.820;20.804;2022-10-31T02:54:42;299.93;;;47.37;;
51957;SDS011;41120;51.820;20.804;2022-10-31T02:57:25;287.93;;;48.47;;
51957;SDS011;41120;51.820;20.804;2022-10-31T03:00:05;281.37;;;45.30;;
51957;SDS011;41120;51.820;20.804;2022-10-31T03:02:55;284.27;;;46.67;;
51957;SDS011;41120;51.820;20.804;2022-10-31T03:17:37;275.60;;;45.43;;
51957;SDS011;41120;51.820;20.804;2022-10-31T03:25:58;275.53;;;45.80;;
51957;SDS011;41120;51.820;20.804;2022-10-31T03:31:29;276.83;;;47.43;;
51957;SDS011;41120;51.820;20.804;2022-10-31T03:34:06;233.80;;;45.40;;
51957;SDS011;41120;51.820;20.804;2022-10-31T03:36:45;280.33;;;46.30;;
51957;SDS011;41120;51.820;20.804;2022-10-31T03:39:30;326.58;;;47.08;;
51957;SDS011;41120;51.820;20.804;2022-10-31T03:42:17;268.80;;;44.83;;
51957;SDS011;41120;51.820;20.804;2022-10-31T03:44:54;320.63;;;46.87;;
51957;SDS011;41120;51.820;20.804;2022-10-31T03:47:25;286.50;;;46.40;;
51957;SDS011;41120;51.820;20.804;2022-10-31T03:52:36;350.03;;;46.83;;
51957;SDS011;41120;51.820;20.804;2022-10-31T03:58:20;343.43;;;46.33;;
51957;SDS011;41120;51.820;20.804;2022-10-31T04:00:53;366.50;;;45.33;;
51957;SDS011;41120;51.820;20.804;2022-10-31T04:03:33;333.47;;;47.20;;
51957;SDS011;41120;51.820;20.804;2022-10-31T04:06:08;358.03;;;47.27;;
51957;SDS011;41120;51.820;20.804;2022-10-31T04:11:46;332.50;;;44.17;;
51957;SDS011;41120;51.820;20.804;2022-10-31T04:17:09;282.20;;;42.33;;
51957;SDS011;41120;51.820;20.804;2022-10-31T04:19:47;311.33;;;43.90;;
51957;SDS011;41120;51.820;20.804;2022-10-31T04:25:16;332.67;;;43.93;;
51957;SDS011;41120;51.820;20.804;2022-10-31T04:27:56;338.10;;;42.73;;
51957;SDS011;41120;51.820;20.804;2022-10-31T04:30:24;256.87;;;43.57;;
51957;SDS011;41120;51.820;20.804;2022-10-31T04:36:10;268.90;;;43.00;;
51957;SDS011;41120;51.820;20.804;2022-10-31T04:38:38;257.92;;;44.28;;
51957;SDS011;41120;51.820;20.804;2022-10-31T04:41:19;239.57;;;42.13;;
51957;SDS011;41120;51.820;20.804;2022-10-31T04:47:04;174.93;;;39.97;;
51957;SDS011;41120;51.820;20.804;2022-10-31T04:49:46;236.13;;;42.57;;
51957;SDS011;41120;51.820;20.804;2022-10-31T04:52:26;202.40;;;41.75;;
51957;SDS011;41120;51.820;20.804;2022-10-31T04:54:52;225.63;;;43.40;;
51957;SDS011;41120;51.820;20.804;2022-10-31T04:57:19;203.30;;;44.70;;
51957;SDS011;41120;51.820;20.804;2022-10-31T05:02:27;191.07;;;41.77;;
51957;SDS011;41120;51.820;20.804;2022-10-31T05:07:24;197.00;;;43.30;;
51957;SDS011;41120;51.820;20.804;2022-10-31T05:09:51;215.83;;;43.33;;
51957;SDS011;41120;51.820;20.804;2022-10-31T05:12:27;255.53;;;44.07;;
51957;SDS011;41120;51.820;20.804;2022-10-31T05:15:05;297.63;;;45.87;;
51957;SDS011;41120;51.820;20.804;2022-10-31T05:17:39;242.87;;;43.83;;
51957;SDS011;41120;51.820;20.804;2022-10-31T05:20:06;240.17;;;42.67;;
51957;SDS011;41120;51.820;20.804;2022-10-31T05:22:32;247.57;;;41.07;;
51957;SDS011;41120;51.820;20.804;2022-10-31T05:24:58;248.57;;;42.40;;
51957;SDS011;41120;51.820;20.804;2022-10-31T05:27:24;252.93;;;41.33;;
51957;SDS011;41120;51.820;20.804;2022-10-31T05:29:50;276.30;;;44.20;;
51957;SDS011;41120;51.820;20.804;2022-10-31T05:32:16;236.80;;;40.90;;
51957;SDS011;41120;51.820;20.804;2022-10-31T05:34:45;259.17;;;41.60;;
51957;SDS011;41120;51.820;20.804;2022-10-31T05:40:28;251.90;;;41.67;;
51957;SDS011;41120;51.820;20.804;2022-10-31T05:45:47;273.17;;;40.23;;
51957;SDS011;41120;51.820;20.804;2022-10-31T05:48:22;236.50;;;41.97;;
51957;SDS011;41120;51.820;20.804;2022-10-31T05:51:03;249.57;;;40.17;;
51957;SDS011;41120;51.820;20.804;2022-10-31T05:53:29;209.17;;;42.00;;
51957;SDS011;41120;51.820;20.804;2022-10-31T05:56:09;224.13;;;40.93;;
51957;SDS011;41120;51.820;20.804;2022-10-31T05:58:47;233.33;;;41.53;;
51957;SDS011;41120;51.820;20.804;2022-10-31T06:01:19;239.27;;;41.93;;
51957;SDS011;41120;51.820;20.804;2022-10-31T06:03:47;255.13;;;42.67;;
51957;SDS011;41120;51.820;20.804;2022-10-31T06:09:05;307.00;;;44.40;;
51957;SDS011;41120;51.820;20.804;2022-10-31T06:11:39;265.83;;;43.97;;
51957;SDS011;41120;51.820;20.804;2022-10-31T06:14:05;285.13;;;45.00;;
51957;SDS011;41120;51.820;20.804;2022-10-31T06:16:31;262.33;;;44.73;;
51957;SDS011;41120;51.820;20.804;2022-10-31T06:18:58;286.73;;;46.03;;
51957;SDS011;41120;51.820;20.804;2022-10-31T06:21:29;339.00;;;48.30;;
51957;SDS011;41120;51.820;20.804;2022-10-31T06:29:38;320.33;;;46.63;;
51957;SDS011;41120;51.820;20.804;2022-10-31T06:40:34;226.40;;;45.47;;
51957;SDS011;41120;51.820;20.804;2022-10-31T06:43:01;256.67;;;45.50;;
51957;SDS011;41120;51.820;20.804;2022-10-31T06:48:47;235.53;;;47.03;;
51957;SDS011;41120;51.820;20.804;2022-10-31T06:51:19;222.73;;;45.80;;
51957;SDS011;41120;51.820;20.804;2022-10-31T06:53:45;264.98;;;48.65;;
51957;SDS011;41120;51.820;20.804;2022-10-31T06:56:24;260.97;;;44.73;;
51957;SDS011;41120;51.820;20.804;2022-10-31T07:04:33;273.73;;;46.67;;
51957;SDS011;41120;51.820;20.804;2022-10-31T07:06:59;278.40;;;46.13;;
51957;SDS011;41120;51.820;20.804;2022-10-31T07:09:25;264.33;;;47.87;;
51957;SDS011;41120;51.820;20.804;2022-10-31T07:11:52;274.97;;;46.07;;
51957;SDS011;41120;51.820;20.804;2022-10-31T07:14:19;233.53;;;43.13;;
51957;SDS011;41120;51.820;20.804;2022-10-31T07:16:48;229.50;;;42.53;;
51957;SDS011;41120;51.820;20.804;2022-10-31T07:25:13;210.53;;;42.30;;
51957;SDS011;41120;51.820;20.804;2022-10-31T07:27:41;170.37;;;43.83;;
51957;SDS011;41120;51.820;20.804;2022-10-31T07:33:04;218.57;;;41.27;;
51957;SDS011;41120;51.820;20.804;2022-10-31T07:35:31;180.98;;;38.58;;
51957;SDS011;41120;51.820;20.804;2022-10-31T07:37:57;166.17;;;38.83;;
51957;SDS011;41120;51.820;20.804;2022-10-31T07:40:31;204.13;;;42.07;;
51957;SDS011;41120;51.820;20.804;2022-10-31T07:42:57;183.37;;;42.27;;
51957;SDS011;41120;51.820;20.804;2022-10-31T07:45:23;194.13;;;40.70;;
51957;SDS011;41120;51.820;20.804;2022-10-31T07:47:50;241.37;;;43.00;;
51957;SDS011;41120;51.820;20.804;2022-10-31T07:50:18;177.63;;;41.80;;
51957;SDS011;41120;51.820;20.804;2022-10-31T07:52:46;155.10;;;40.33;;
51957;SDS011;41120;51.820;20.804;2022-10-31T07:55:13;225.83;;;44.43;;
51957;SDS011;41120;51.820;20.804;2022-10-31T07:57:40;180.37;;;39.83;;
51957;SDS011;41120;51.820;20.804;2022-10-31T08:00:07;158.67;;;40.87;;
51957;SDS011;41120;51.820;20.804;2022-10-31T08:02:35;141.07;;;40.13;;
51957;SDS011;41120;51.820;20.804;2022-10-31T08:05:01;137.73;;;37.47;;
51957;SDS011;41120;51.820;20.804;2022-10-31T08:07:27;145.37;;;37.03;;
51957;SDS011;41120;51.820;20.804;2022-10-31T08:09:54;145.43;;;38.27;;
51957;SDS011;41120;51.820;20.804;2022-10-31T08:12:20;117.50;;;36.57;;
51957;SDS011;41120;51.820;20.804;2022-10-31T08:14:47;137.70;;;37.27;;
51957;SDS011;41120;51.820;20.804;2022-10-31T08:17:13;128.50;;;37.53;;
51957;SDS011;41120;51.820;20.804;2022-10-31T08:19:40;106.40;;;38.40;;
51957;SDS011;41120;51.820;20.804;2022-10-31T08:22:06;105.97;;;36.63;;
51957;SDS011;41120;51.820;20.804;2022-10-31T08:24:32;110.83;;;38.50;;
51957;SDS011;41120;51.820;20.804;2022-10-31T08:26:58;106.43;;;37.50;;
51957;SDS011;41120;51.820;20.804;2022-10-31T08:29:24;103.80;;;35.03;;
51957;SDS011;41120;51.820;20.804;2022-10-31T08:31:50;112.10;;;36.13;;
51957;SDS011;41120;51.820;20.804;2022-10-31T08:34:16;110.23;;;34.43;;
51957;SDS011;41120;51.820;20.804;2022-10-31T08:36:42;107.97;;;33.50;;
51957;SDS011;41120;51.820;20.804;2022-10-31T08:39:10;97.40;;;33.00;;
51957;SDS011;41120;51.820;20.804;2022-10-31T08:41:36;106.07;;;34.50;;
51957;SDS011;41120;51.820;20.804;2022-10-31T08:44:02;139.03;;;36.17;;
51957;SDS011;41120;51.820;20.804;2022-10-31T08:46:28;139.23;;;35.07;;
51957;SDS011;41120;51.820;20.804;2022-10-31T08:48:54;127.20;;;36.53;;
51957;SDS011;41120;51.820;20.804;2022-10-31T08:51:20;114.73;;;35.10;;
51957;SDS011;41120;51.820;20.804;2022-10-31T08:53:46;117.63;;;36.00;;
51957;SDS011;41120;51.820;20.804;2022-10-31T08:56:14;124.53;;;36.17;;
51957;SDS011;41120;51.820;20.804;2022-10-31T08:58:40;141.93;;;36.50;;
51957;SDS011;41120;51.820;20.804;2022-10-31T09:01:06;109.60;;;31.97;;
51957;SDS011;41120;51.820;20.804;2022-10-31T09:03:32;112.73;;;33.37;;
51957;SDS011;41120;51.820;20.804;2022-10-31T09:05:58;158.03;;;30.63;;
51957;SDS011;41120;51.820;20.804;2022-10-31T09:08:26;103.70;;;31.63;;
51957;SDS011;41120;51.820;20.804;2022-10-31T09:10:58;95.23;;;30.50;;
51957;SDS011;41120;51.820;20.804;2022-10-31T09:13:25;126.80;;;30.90;;
51957;SDS011;41120;51.820;20.804;2022-10-31T09:15:51;97.17;;;30.73;;
51957;SDS011;41120;51.820;20.804;2022-10-31T09:18:18;121.13;;;29.57;;
51957;SDS011;41120;51.820;20.804;2022-10-31T09:20:46;95.87;;;28.93;;
51957;SDS011;41120;51.820;20.804;2022-10-31T09:23:14;120.87;;;30.43;;
51957;SDS011;41120;51.820;20.804;2022-10-31T09:25:50;95.73;;;30.40;;
51957;SDS011;41120;51.820;20.804;2022-10-31T09:28:19;114.07;;;31.53;;
51957;SDS011;41120;51.820;20.804;2022-10-31T09:30:47;107.83;;;31.77;;
51957;SDS011;41120;51.820;20.804;2022-10-31T09:33:14;99.80;;;31.17;;
51957;SDS011;41120;51.820;20.804;2022-10-31T09:35:41;107.63;;;31.90;;
51957;SDS011;41120;51.820;20.804;2022-10-31T09:45:39;113.97;;;32.43;;
51957;SDS011;41120;51.820;20.804;2022-10-31T09:51:05;122.00;;;31.83;;
51957;SDS011;41120;51.820;20.804;2022-10-31T09:53:43;118.57;;;33.43;;
51957;SDS011;41120;51.820;20.804;2022-10-31T09:56:25;135.57;;;33.77;;
51957;SDS011;41120;51.820;20.804;2022-10-31T09:58:54;137.07;;;35.93;;
51957;SDS011;41120;51.820;20.804;2022-10-31T10:06:52;153.70;;;36.10;;
51957;SDS011;41120;51.820;20.804;2022-10-31T10:09:26;160.23;;;35.73;;
51957;SDS011;41120;51.820;20.804;2022-10-31T10:14:40;153.50;;;37.47;;
51957;SDS011;41120;51.820;20.804;2022-10-31T10:17:32;142.03;;;35.90;;
51957;SDS011;41120;51.820;20.804;2022-10-31T10:26:15;179.50;;;38.73;;
51957;SDS011;41120;51.820;20.804;2022-10-31T10:28:48;164.63;;;40.73;;
51957;SDS011;41120;51.820;20.804;2022-10-31T10:31:26;186.30;;;40.27;;
51957;SDS011;41120;51.820;20.804;2022-10-31T10:34:02;162.43;;;42.80;;
51957;SDS011;41120;51.820;20.804;2022-10-31T10:39:16;166.88;;;43.55;;
51957;SDS011;41120;51.820;20.804;2022-10-31T10:41:50;170.30;;;42.17;;
51957;SDS011;41120;51.820;20.804;2022-10-31T10:44:38;172.50;;;43.17;;
51957;SDS011;41120;51.820;20.804;2022-10-31T10:50:04;168.97;;;40.30;;
51957;SDS011;41120;51.820;20.804;2022-10-31T10:52:42;173.33;;;38.77;;
51957;SDS011;41120;51.820;20.804;2022-10-31T11:00:30;128.17;;;37.50;;
51957;SDS011;41120;51.820;20.804;2022-10-31T11:03:00;133.23;;;37.83;;
51957;SDS011;41120;51.820;20.804;2022-10-31T11:05:36;158.23;;;38.10;;
51957;SDS011;41120;51.820;20.804;2022-10-31T11:08:06;172.40;;;39.77;;
51957;SDS011;41120;51.820;20.804;2022-10-31T11:10:33;119.77;;;39.03;;
51957;SDS011;41120;51.820;20.804;2022-10-31T11:13:05;137.87;;;37.87;;
51957;SDS011;41120;51.820;20.804;2022-10-31T11:15:35;122.63;;;35.33;;
51957;SDS011;41120;51.820;20.804;2022-10-31T11:18:05;138.87;;;40.23;;
51957;SDS011;41120;51.820;20.804;2022-10-31T11:20:38;151.33;;;39.83;;
51957;SDS011;41120;51.820;20.804;2022-10-31T11:23:17;150.70;;;40.67;;
51957;SDS011;41120;51.820;20.804;2022-10-31T11:25:51;132.30;;;43.20;;
51957;SDS011;41120;51.820;20.804;2022-10-31T11:28:20;124.87;;;43.80;;
51957;SDS011;41120;51.820;20.804;2022-10-31T11:30:51;116.13;;;39.77;;
51957;SDS011;41120;51.820;20.804;2022-10-31T11:33:22;120.53;;;40.47;;
51957;SDS011;41120;51.820;20.804;2022-10-31T11:35:48;124.37;;;43.73;;
51957;SDS011;41120;51.820;20.804;2022-10-31T11:38:16;109.57;;;41.87;;
51957;SDS011;41120;51.820;20.804;2022-10-31T11:41:06;112.60;;;41.87;;
51957;SDS011;41120;51.820;20.804;2022-10-31T11:43:34;105.47;;;38.30;;
51957;SDS011;41120;51.820;20.804;2022-10-31T11:46:08;119.03;;;40.23;;
51957;SDS011;41120;51.820;20.804;2022-10-31T11:48:37;108.57;;;38.90;;
51957;SDS011;41120;51.820;20.804;2022-10-31T11:51:03;117.77;;;38.97;;
51957;SDS011;41120;51.820;20.804;2022-10-31T11:53:32;131.73;;;40.47;;
51957;SDS011;41120;51.820;20.804;2022-10-31T11:56:03;145.20;;;44.10;;
51957;SDS011;41120;51.820;20.804;2022-10-31T11:58:40;144.93;;;45.10;;
51957;SDS011;41120;51.820;20.804;2022-10-31T12:01:08;148.83;;;47.63;;
51957;SDS011;41120;51.820;20.804;2022-10-31T12:06:35;135.97;;;45.20;;
51957;SDS011;41120;51.820;20.804;2022-10-31T12:09:09;148.38;;;45.50;;
51957;SDS011;41120;51.820;20.804;2022-10-31T12:11:49;154.43;;;46.83;;
51957;SDS011;41120;51.820;20.804;2022-10-31T12:17:35;183.30;;;46.33;;
51957;SDS011;41120;51.820;20.804;2022-10-31T13:07:12;346.83;;;55.17;;
51957;SDS011;41120;51.820;20.804;2022-10-31T13:12:58;441.03;;;55.50;;
51957;SDS011;41120;51.820;20.804;2022-10-31T13:15:43;379.03;;;55.60;;
51957;SDS011;41120;51.820;20.804;2022-10-31T13:18:26;429.60;;;57.50;;
51957;SDS011;41120;51.820;20.804;2022-10-31T13:24:18;440.93;;;55.90;;
51957;SDS011;41120;51.820;20.804;2022-10-31T13:26:54;442.77;;;57.03;;
51957;SDS011;41120;51.820;20.804;2022-10-31T13:29:28;434.30;;;55.87;;
51957;SDS011;41120;51.820;20.804;2022-10-31T13:34:41;413.47;;;57.57;;
51957;SDS011;41120;51.820;20.804;2022-10-31T13:37:15;428.73;;;55.50;;
51957;SDS011;41120;51.820;20.804;2022-10-31T13:42:48;424.33;;;56.77;;
51957;SDS011;41120;51.820;20.804;2022-10-31T13:45:20;345.23;;;56.10;;
51957;SDS011;41120;51.820;20.804;2022-10-31T13:47:56;466.10;;;57.63;;
51957;SDS011;41120;51.820;20.804;2022-10-31T13:50:28;535.77;;;63.23;;
51957;SDS011;41120;51.820;20.804;2022-10-31T13:53:08;475.03;;;59.07;;
51957;SDS011;41120;51.820;20.804;2022-10-31T13:55:39;525.90;;;59.43;;
51957;SDS011;41120;51.820;20.804;2022-10-31T14:01:11;481.23;;;57.53;;
51957;SDS011;41120;51.820;20.804;2022-10-31T14:04:02;516.10;;;59.67;;
51957;SDS011;41120;51.820;20.804;2022-10-31T14:09:36;568.88;;;59.92;;
51957;SDS011;41120;51.820;20.804;2022-10-31T14:12:08;556.95;;;59.92;;
51957;SDS011;41120;51.820;20.804;2022-10-31T14:14:43;456.90;;;55.67;;
51957;SDS011;41120;51.820;20.804;2022-10-31T14:17:17;455.07;;;57.10;;
51957;SDS011;41120;51.820;20.804;2022-10-31T14:22:49;414.13;;;56.97;;
51957;SDS011;41120;51.820;20.804;2022-10-31T14:25:25;425.53;;;57.03;;
51957;SDS011;41120;51.820;20.804;2022-10-31T14:28:05;562.43;;;59.40;;
51957;SDS011;41120;51.820;20.804;2022-10-31T14:30:54;587.57;;;61.10;;
51957;SDS011;41120;51.820;20.804;2022-10-31T14:33:24;503.37;;;59.27;;
51957;SDS011;41120;51.820;20.804;2022-10-31T14:36:29;525.43;;;59.97;;
51957;SDS011;41120;51.820;20.804;2022-10-31T14:38:57;519.47;;;56.23;;
51957;SDS011;41120;51.820;20.804;2022-10-31T14:41:54;505.13;;;57.30;;
51957;SDS011;41120;51.820;20.804;2022-10-31T14:44:30;555.63;;;59.17;;
51957;SDS011;41120;51.820;20.804;2022-10-31T14:52:08;602.57;;;61.63;;
51957;SDS011;41120;51.820;20.804;2022-10-31T14:54:41;578.13;;;63.00;;
51957;SDS011;41120;51.820;20.804;2022-10-31T14:57:31;581.53;;;62.33;;
51957;SDS011;41120;51.820;20.804;2022-10-31T15:00:01;613.40;;;63.50;;
51957;SDS011;41120;51.820;20.804;2022-10-31T15:02:46;621.60;;;63.27;;
51957;SDS011;41120;51.820;20.804;2022-10-31T15:05:22;592.33;;;66.23;;
51957;SDS011;41120;51.820;20.804;2022-10-31T15:07:52;689.33;;;67.17;;
51957;SDS011;41120;51.820;20.804;2022-10-31T15:12:48;651.60;;;67.80;;
51957;SDS011;41120;51.820;20.804;2022-10-31T15:15:22;612.77;;;65.87;;
51957;SDS011;41120;51.820;20.804;2022-10-31T15:20:24;608.13;;;63.53;;
51957;SDS011;41120;51.820;20.804;2022-10-31T15:22:56;500.70;;;59.37;;
51957;SDS011;41120;51.820;20.804;2022-10-31T15:25:25;571.13;;;60.83;;
51957;SDS011;41120;51.820;20.804;2022-10-31T15:27:53;553.00;;;60.37;;
51957;SDS011;41120;51.820;20.804;2022-10-31T15:30:23;706.40;;;64.60;;
51957;SDS011;41120;51.820;20.804;2022-10-31T15:32:51;638.20;;;66.57;;
51957;SDS011;41120;51.820;20.804;2022-10-31T15:35:36;810.03;;;70.47;;
51957;SDS011;41120;51.820;20.804;2022-10-31T15:38:02;789.27;;;67.50;;
51957;SDS011;41120;51.820;20.804;2022-10-31T15:40:29;704.50;;;66.47;;
51957;SDS011;41120;51.820;20.804;2022-10-31T15:43:04;579.37;;;62.50;;
51957;SDS011;41120;51.820;20.804;2022-10-31T15:45:33;642.20;;;59.83;;
51957;SDS011;41120;51.820;20.804;2022-10-31T15:48:00;703.60;;;61.53;;
51957;SDS011;41120;51.820;20.804;2022-10-31T15:50:37;664.27;;;62.67;;
51957;SDS011;41120;51.820;20.804;2022-10-31T15:53:11;817.47;;;67.07;;
51957;SDS011;41120;51.820;20.804;2022-10-31T15:55:55;650.47;;;64.97;;
51957;SDS011;41120;51.820;20.804;2022-10-31T15:58:24;750.40;;;68.30;;
51957;SDS011;41120;51.820;20.804;2022-10-31T16:00:59;831.17;;;69.80;;
51957;SDS011;41120;51.820;20.804;2022-10-31T16:03:30;854.87;;;72.67;;
51957;SDS011;41120;51.820;20.804;2022-10-31T16:05:59;827.63;;;70.13;;
51957;SDS011;41120;51.820;20.804;2022-10-31T16:10:57;605.27;;;61.50;;
51957;SDS011;41120;51.820;20.804;2022-10-31T16:13:27;658.53;;;61.03;;
51957;SDS011;41120;51.820;20.804;2022-10-31T16:16:02;546.67;;;59.23;;
51957;SDS011;41120;51.820;20.804;2022-10-31T16:18:36;544.97;;;58.43;;
51957;SDS011;41120;51.820;20.804;2022-10-31T16:21:05;381.87;;;52.77;;
51957;SDS011;41120;51.820;20.804;2022-10-31T16:23:32;622.93;;;56.73;;
51957;SDS011;41120;51.820;20.804;2022-10-31T16:25:59;465.40;;;51.93;;
51957;SDS011;41120;51.820;20.804;2022-10-31T16:28:26;450.07;;;49.93;;
51957;SDS011;41120;51.820;20.804;2022-10-31T16:30:53;479.07;;;50.77;;
51957;SDS011;41120;51.820;20.804;2022-10-31T16:33:26;489.70;;;48.90;;
51957;SDS011;41120;51.820;20.804;2022-10-31T16:35:55;429.70;;;47.67;;
51957;SDS011;41120;51.820;20.804;2022-10-31T16:38:22;594.03;;;53.37;;
51957;SDS011;41120;51.820;20.804;2022-10-31T16:40:48;497.63;;;50.77;;
51957;SDS011;41120;51.820;20.804;2022-10-31T16:43:16;506.70;;;49.50;;
51957;SDS011;41120;51.820;20.804;2022-10-31T16:45:45;473.73;;;49.10;;
51957;SDS011;41120;51.820;20.804;2022-10-31T16:48:14;446.50;;;49.77;;
51957;SDS011;41120;51.820;20.804;2022-10-31T16:50:42;480.03;;;52.03;;
51957;SDS011;41120;51.820;20.804;2022-10-31T16:53:09;529.93;;;53.20;;
51957;SDS011;41120;51.820;20.804;2022-10-31T16:55:48;525.33;;;52.53;;
51957;SDS011;41120;51.820;20.804;2022-10-31T16:58:17;502.87;;;51.83;;
51957;SDS011;41120;51.820;20.804;2022-10-31T17:01:10;481.57;;;50.93;;
51957;SDS011;41120;51.820;20.804;2022-10-31T17:03:38;565.17;;;49.83;;
51957;SDS011;41120;51.820;20.804;2022-10-31T17:06:05;570.07;;;51.07;;
51957;SDS011;41120;51.820;20.804;2022-10-31T17:08:32;627.57;;;55.63;;
51957;SDS011;41120;51.820;20.804;2022-10-31T17:10:58;549.03;;;53.13;;
51957;SDS011;41120;51.820;20.804;2022-10-31T17:13:29;469.27;;;48.17;;
51957;SDS011;41120;51.820;20.804;2022-10-31T17:15:58;473.30;;;49.45;;
51957;SDS011;41120;51.820;20.804;2022-10-31T17:18:28;462.53;;;50.47;;
51957;SDS011;41120;51.820;20.804;2022-10-31T17:20:59;521.10;;;51.60;;
51957;SDS011;41120;51.820;20.804;2022-10-31T17:23:28;589.47;;;54.63;;
51957;SDS011;41120;51.820;20.804;2022-10-31T17:25:55;590.93;;;56.30;;
51957;SDS011;41120;51.820;20.804;2022-10-31T17:28:22;579.77;;;56.53;;
51957;SDS011;41120;51.820;20.804;2022-10-31T17:30:52;681.70;;;59.90;;
51957;SDS011;41120;51.820;20.804;2022-10-31T17:33:20;742.07;;;62.30;;
51957;SDS011;41120;51.820;20.804;2022-10-31T17:35:50;629.13;;;57.00;;
51957;SDS011;41120;51.820;20.804;2022-10-31T17:38:18;467.40;;;52.73;;
51957;SDS011;41120;51.820;20.804;2022-10-31T17:40:46;533.53;;;53.50;;
51957;SDS011;41120;51.820;20.804;2022-10-31T17:43:19;458.40;;;51.30;;
51957;SDS011;41120;51.820;20.804;2022-10-31T17:45:48;432.87;;;51.37;;
51957;SDS011;41120;51.820;20.804;2022-10-31T17:48:13;547.13;;;55.13;;
51957;SDS011;41120;51.820;20.804;2022-10-31T17:50:46;496.27;;;53.53;;
51957;SDS011;41120;51.820;20.804;2022-10-31T17:53:12;412.00;;;51.13;;
51957;SDS011;41120;51.820;20.804;2022-10-31T17:55:42;551.43;;;54.03;;
51957;SDS011;41120;51.820;20.804;2022-10-31T17:58:09;539.30;;;54.37;;
51957;SDS011;41120;51.820;20.804;2022-10-31T18:00:38;553.60;;;56.23;;
51957;SDS011;41120;51.820;20.804;2022-10-31T18:03:09;462.47;;;55.40;;
51957;SDS011;41120;51.820;20.804;2022-10-31T18:05:36;672.63;;;60.67;;
51957;SDS011;41120;51.820;20.804;2022-10-31T18:08:04;504.13;;;55.23;;
51957;SDS011;41120;51.820;20.804;2022-10-31T18:10:32;443.60;;;53.37;;
51957;SDS011;41120;51.820;20.804;2022-10-31T18:13:03;417.67;;;50.47;;
51957;SDS011;41120;51.820;20.804;2022-10-31T18:18:35;346.15;;;44.13;;
51957;SDS011;41120;51.820;20.804;2022-10-31T18:21:02;478.10;;;49.87;;
51957;SDS011;41120;51.820;20.804;2022-10-31T18:26:29;481.87;;;50.63;;
51957;SDS011;41120;51.820;20.804;2022-10-31T18:28:57;484.63;;;51.77;;
51957;SDS011;41120;51.820;20.804;2022-10-31T18:31:24;473.77;;;51.53;;
51957;SDS011;41120;51.820;20.804;2022-10-31T18:33:53;372.87;;;47.80;;
51957;SDS011;41120;51.820;20.804;2022-10-31T18:36:27;312.40;;;47.50;;
51957;SDS011;41120;51.820;20.804;2022-10-31T18:38:55;384.27;;;48.70;;
51957;SDS011;41120;51.820;20.804;2022-10-31T18:41:21;534.13;;;52.57;;
51957;SDS011;41120;51.820;20.804;2022-10-31T18:43:48;411.27;;;50.03;;
51957;SDS011;41120;51.820;20.804;2022-10-31T18:46:15;449.70;;;50.03;;
51957;SDS011;41120;51.820;20.804;2022-10-31T18:48:43;345.17;;;45.23;;
51957;SDS011;41120;51.820;20.804;2022-10-31T18:51:10;420.87;;;49.50;;
51957;SDS011;41120;51.820;20.804;2022-10-31T18:53:48;393.37;;;48.30;;
51957;SDS011;41120;51.820;20.804;2022-10-31T18:56:15;401.70;;;46.90;;